Kress, Texas
Current Conditions -  °F | °C
As of 4:35 PM on Friday 19 Dec 2014 (Local Time) from KPVW Reporting Station
Overcast Overcast  
Wind Chill: 41°   Ceiling: 1000
Heat Index: 41°   Visibility: 10mi
Dew Point: 37°   Wind: 0mph
Humidity: 86%   Direction: NA
Pressure: 30.12"   Gusts: NA
Location:  34.37°N, 101.75°W
Report Text: KPVW 192235Z AUTO 00000KT 10SM OVC010 05/03 A3012 RMK AO2 T00500029
Loading
Personal Weather Stations






























Interactive Weather Map New forecast layout! Learn more

10-Day Weather Forecast

Advertisements
Track Severe Weather on mobile